Time;durP1;ratioP1;P1;durP2;ratioP2;P2;SDS_P1;SDS_P2;PMS_P1;PMS_P2;Temp;Humidity;BMP_temperature;BMP_pressure;BME280_temperature;BME280_humidity;BME280_pressure;Samples;Min_cycle;Max_cycle;Signal;HPM_P1;HPM_P2
2022/04/28 00:01:48;;;;;;;4.60;3.47;;;10.80;99.90;;;;;;4274506;27;20079;-57
2022/04/28 00:03:51;;;;;;;6.10;4.50;;;10.80;99.90;;;;;;4274377;27;20046;-62
2022/04/28 00:05:52;;;;;;;4.53;4.13;;;10.80;99.90;;;;;;4275038;27;20042;-54
2022/04/28 00:07:54;;;;;;;5.23;4.07;;;10.80;99.90;;;;;;4276059;27;20174;-52
2022/04/28 00:09:55;;;;;;;5.60;3.90;;;10.90;99.90;;;;;;4262494;27;20034;-50
2022/04/28 00:11:56;;;;;;;5.33;4.00;;;10.90;99.90;;;;;;4258069;27;20173;-53
2022/04/28 00:14:00;;;;;;;5.23;3.90;;;10.90;99.90;;;;;;4258772;27;20027;-54
2022/04/28 00:16:02;;;;;;;8.73;4.80;;;10.90;99.90;;;;;;4257839;27;20181;-51
2022/04/28 00:18:03;;;;;;;6.90;4.57;;;10.90;99.90;;;;;;4259383;27;20095;-54
2022/04/28 00:20:06;;;;;;;6.37;4.60;;;10.90;99.90;;;;;;4257767;27;20490;-60
2022/04/28 00:22:08;;;;;;;6.23;3.93;;;10.90;99.90;;;;;;4260672;27;20083;-50
2022/04/28 00:24:09;;;;;;;5.50;4.20;;;10.90;99.90;;;;;;4257940;27;20047;-50
2022/04/28 00:26:12;;;;;;;8.87;4.60;;;10.90;99.90;;;;;;4258902;27;20035;-52
2022/04/28 00:28:13;;;;;;;4.93;3.83;;;10.90;99.90;;;;;;4258139;27;20133;-56
2022/04/28 00:30:15;;;;;;;6.00;4.53;;;10.90;99.90;;;;;;4259292;27;20792;-51
2022/04/28 00:32:17;;;;;;;5.57;4.13;;;10.90;99.90;;;;;;4258334;27;20043;-53
2022/04/28 00:34:18;;;;;;;5.00;4.40;;;10.90;99.90;;;;;;4262174;27;20372;-63
2022/04/28 00:36:19;;;;;;;5.80;4.40;;;10.90;99.90;;;;;;4265604;27;20849;-61
2022/04/28 00:38:20;;;;;;;7.03;4.20;;;10.90;99.90;;;;;;4275646;27;20025;-52
2022/04/28 00:40:21;;;;;;;6.17;4.30;;;10.90;99.90;;;;;;4275693;27;20023;-53
2022/04/28 00:42:22;;;;;;;5.23;3.93;;;10.90;99.90;;;;;;4275308;27;20040;-66
2022/04/28 00:44:24;;;;;;;7.47;4.37;;;10.90;99.90;;;;;;4274817;27;20511;-62
2022/04/28 00:46:25;;;;;;;4.67;3.40;;;10.90;99.90;;;;;;4275342;27;20026;-62
2022/04/28 00:50:46;;;;;;;6.13;3.60;;;10.90;99.90;;;;;;4240693;27;20047;-52
2022/04/28 00:52:47;;;;;;;4.63;3.80;;;10.90;99.90;;;;;;4242008;27;20332;-66
2022/04/28 00:54:51;;;;;;;5.80;3.53;;;11.00;99.90;;;;;;4241035;27;20027;-54
2022/04/28 00:56:53;;;;;;;4.87;3.77;;;11.00;99.90;;;;;;4241210;27;20051;-53
2022/04/28 00:58:55;;;;;;;5.53;3.70;;;11.00;99.90;;;;;;4249334;27;20038;-63
2022/04/28 01:00:57;;;;;;;6.13;3.53;;;11.00;99.90;;;;;;4276481;27;20605;-55
2022/04/28 01:02:59;;;;;;;4.63;3.53;;;11.00;99.90;;;;;;4273991;27;20106;-59
2022/04/28 01:05:00;;;;;;;6.33;3.97;;;11.00;99.90;;;;;;4258934;27;20099;-69
2022/04/28 01:07:02;;;;;;;4.47;3.47;;;11.10;99.90;;;;;;4257873;27;20087;-54
2022/04/28 01:09:03;;;;;;;5.50;3.27;;;11.10;99.90;;;;;;4258896;27;20462;-61
2022/04/28 01:11:05;;;;;;;4.27;3.47;;;11.10;99.90;;;;;;4259231;27;20035;-54
2022/04/28 01:13:06;;;;;;;4.43;3.67;;;11.10;99.90;;;;;;4258269;27;20110;-53
2022/04/28 01:15:08;;;;;;;6.13;3.70;;;11.10;99.90;;;;;;4257566;27;20030;-54
2022/04/28 01:17:09;;;;;;;5.10;3.47;;;11.10;99.90;;;;;;4257315;27;20495;-53
2022/04/28 01:19:10;;;;;;;4.33;3.70;;;11.10;99.90;;;;;;4257625;27;20096;-57
2022/04/28 01:21:13;;;;;;;6.30;4.00;;;11.00;99.90;;;;;;4257289;27;20043;-68
2022/04/28 01:23:14;;;;;;;4.97;4.30;;;11.00;99.90;;;;;;4257728;27;20102;-54
2022/04/28 01:25:15;;;;;;;6.13;4.30;;;10.90;99.90;;;;;;4260045;27;20071;-57
2022/04/28 01:27:17;;;;;;;8.53;5.00;;;10.90;99.90;;;;;;4274912;27;20050;-56
2022/04/28 01:29:18;;;;;;;7.07;5.60;;;10.90;99.90;;;;;;4274511;27;20764;-55
2022/04/28 01:31:19;;;;;;;9.33;6.53;;;10.80;99.90;;;;;;4274636;27;20510;-54
2022/04/28 01:33:20;;;;;;;8.13;6.60;;;10.80;99.90;;;;;;4273685;27;20106;-61
2022/04/28 01:35:22;;;;;;;11.67;7.67;;;10.80;99.90;;;;;;4275558;27;20067;-58
2022/04/28 01:37:25;;;;;;;13.70;8.03;;;10.80;99.90;;;;;;4271767;27;20049;-55
2022/04/28 01:39:26;;;;;;;9.97;7.73;;;10.80;99.90;;;;;;4268823;27;20026;-54
2022/04/28 01:41:27;;;;;;;12.00;9.57;;;10.80;99.90;;;;;;4268463;27;20050;-65
2022/04/28 01:43:28;;;;;;;15.20;10.90;;;10.80;99.90;;;;;;4274901;27;20079;-62
2022/04/28 01:45:30;;;;;;;16.47;12.20;;;10.80;99.90;;;;;;4264752;27;20471;-51
2022/04/28 01:47:31;;;;;;;18.90;13.40;;;10.80;99.90;;;;;;4257138;27;20498;-55
2022/04/28 01:49:32;;;;;;;18.73;12.70;;;10.80;99.90;;;;;;4268000;27;20448;-53
2022/04/28 01:56:13;;;;;;;12.90;8.60;;;10.70;99.90;;;;;;4274197;27;20103;-50
2022/04/28 01:58:14;;;;;;;10.03;7.30;;;10.70;99.90;;;;;;4273419;27;20034;-51
2022/04/28 02:00:16;;;;;;;10.77;7.80;;;10.80;99.90;;;;;;4273908;27;20038;-54
2022/04/28 02:02:17;;;;;;;7.47;6.10;;;10.80;99.90;;;;;;4274967;27;20037;-52
2022/04/28 02:04:19;;;;;;;8.17;5.83;;;10.80;99.90;;;;;;4265377;27;20096;-52
2022/04/28 02:06:20;;;;;;;8.23;6.23;;;10.70;99.90;;;;;;4261016;27;20638;-61
2022/04/28 02:08:21;;;;;;;6.30;4.73;;;10.80;99.90;;;;;;4257521;27;20079;-58
2022/04/28 02:10:23;;;;;;;5.73;4.27;;;10.80;99.90;;;;;;4260034;27;20054;-67
2022/04/28 02:12:25;;;;;;;6.87;5.37;;;10.70;99.90;;;;;;4262888;27;20530;-60
2022/04/28 02:14:26;;;;;;;8.10;5.30;;;10.70;99.90;;;;;;4262976;27;20034;-53
2022/04/28 02:16:27;;;;;;;7.40;5.00;;;10.70;99.90;;;;;;4260985;27;20038;-65
2022/04/28 02:18:28;;;;;;;8.33;5.03;;;10.80;99.90;;;;;;4261824;27;20035;-54
2022/04/28 02:20:29;;;;;;;5.77;5.17;;;10.70;99.90;;;;;;4270976;27;20038;-59
2022/04/28 02:22:31;;;;;;;5.80;4.97;;;10.70;99.90;;;;;;4277108;27;20098;-55
2022/04/28 02:24:32;;;;;;;6.97;6.00;;;10.70;99.90;;;;;;4262736;27;20888;-65
2022/04/28 02:26:34;;;;;;;7.50;5.70;;;10.70;99.90;;;;;;4260290;27;20175;-70
2022/04/28 02:28:35;;;;;;;6.30;5.33;;;10.70;99.90;;;;;;4259560;27;20031;-51
2022/04/28 02:30:36;;;;;;;7.33;4.90;;;10.70;99.90;;;;;;4260315;27;20099;-58
2022/04/28 02:34:57;;;;;;;5.77;4.67;;;10.70;99.90;;;;;;4266715;27;20034;-49
2022/04/28 02:36:58;;;;;;;7.70;5.33;;;10.70;99.90;;;;;;4277279;27;20098;-55
2022/04/28 02:38:59;;;;;;;5.60;4.73;;;10.70;99.90;;;;;;4268163;27;20424;-55
2022/04/28 02:41:00;;;;;;;7.53;5.33;;;10.60;99.90;;;;;;4260758;27;20031;-54
2022/04/28 02:43:02;;;;;;;6.27;5.00;;;10.70;99.90;;;;;;4259583;27;20042;-54
2022/04/28 02:45:03;;;;;;;9.43;5.20;;;10.60;99.90;;;;;;4260325;27;20047;-53
2022/04/28 02:47:04;;;;;;;9.37;5.73;;;10.60;99.90;;;;;;4258923;27;20031;-64
2022/04/28 02:49:06;;;;;;;8.00;5.37;;;10.60;99.90;;;;;;4260580;27;20034;-60
2022/04/28 02:51:07;;;;;;;7.97;5.90;;;10.60;99.90;;;;;;4259447;27;20044;-52
2022/04/28 02:53:08;;;;;;;7.00;5.53;;;10.60;99.90;;;;;;4267987;27;20026;-53
2022/04/28 02:55:10;;;;;;;6.03;4.97;;;10.60;99.90;;;;;;4257409;27;20467;-54
2022/04/28 02:57:11;;;;;;;7.60;5.30;;;10.60;99.90;;;;;;4277745;27;20451;-55
2022/04/28 02:59:12;;;;;;;6.83;5.43;;;10.60;99.90;;;;;;4274941;27;20030;-60
2022/04/28 03:01:13;;;;;;;8.67;5.30;;;10.60;99.90;;;;;;4277084;27;20042;-64
2022/04/28 03:03:14;;;;;;;7.07;4.90;;;10.60;99.90;;;;;;4275910;27;20038;-52
2022/04/28 03:05:15;;;;;;;6.93;4.77;;;10.70;99.90;;;;;;4275461;27;20046;-52
2022/04/28 03:11:57;;;;;;;8.93;5.53;;;10.60;99.90;;;;;;4261716;27;20296;-64
2022/04/28 03:13:59;;;;;;;8.50;5.13;;;10.60;99.90;;;;;;4267200;27;20440;-52
2022/04/28 03:16:00;;;;;;;7.83;5.20;;;10.70;99.90;;;;;;4276600;27;20026;-55
2022/04/28 03:18:02;;;;;;;9.90;5.63;;;10.70;99.90;;;;;;4277098;27;20083;-53
2022/04/28 03:20:05;;;;;;;7.23;5.97;;;10.70;99.90;;;;;;4277520;27;20029;-56
2022/04/28 03:22:06;;;;;;;15.57;7.73;;;10.60;99.90;;;;;;4275187;27;20026;-51
2022/04/28 03:24:07;;;;;;;10.83;6.40;;;10.60;99.90;;;;;;4277553;27;20030;-67
2022/04/28 03:26:10;;;;;;;11.03;6.53;;;10.50;99.90;;;;;;4260045;27;21030;-66
2022/04/28 03:28:11;;;;;;;13.40;6.23;;;10.50;99.90;;;;;;4259629;27;20042;-54
2022/04/28 03:30:12;;;;;;;12.73;6.67;;;10.50;99.90;;;;;;4258659;27;20122;-51
2022/04/28 03:32:13;;;;;;;10.57;6.33;;;10.50;99.90;;;;;;4259456;27;20182;-58
2022/04/28 03:34:14;;;;;;;10.83;7.83;;;10.50;99.90;;;;;;4258721;27;20818;-49
2022/04/28 03:38:35;;;;;;;8.18;6.22;;;10.50;99.90;;;;;;4259332;27;20019;-54
2022/04/28 03:40:37;;;;;;;10.53;6.30;;;10.50;99.90;;;;;;4260993;27;20452;-52
2022/04/28 03:42:39;;;;;;;11.43;6.43;;;10.60;99.90;;;;;;4259042;27;20018;-59
2022/04/28 03:44:40;;;;;;;10.63;6.80;;;10.60;99.90;;;;;;4270030;27;20079;-57
2022/04/28 03:46:41;;;;;;;9.57;5.73;;;10.60;99.90;;;;;;4271141;27;20074;-50
2022/04/28 03:48:42;;;;;;;11.00;7.30;;;10.70;99.90;;;;;;4275446;27;20613;-54
2022/04/28 03:50:43;;;;;;;7.47;6.20;;;10.70;99.90;;;;;;4262067;27;20047;-61
2022/04/28 03:52:44;;;;;;;13.80;7.20;;;10.70;99.90;;;;;;4276195;27;20034;-65
2022/04/28 03:54:46;;;;;;;9.60;7.00;;;10.70;99.90;;;;;;4275170;27;20023;-53
2022/04/28 03:56:47;;;;;;;9.93;7.33;;;10.80;99.90;;;;;;4261048;27;20111;-62
2022/04/28 03:58:48;;;;;;;10.80;6.60;;;10.80;99.90;;;;;;4259356;27;20031;-58
2022/04/28 04:00:51;;;;;;;14.17;6.97;;;10.80;99.90;;;;;;4265625;27;20170;-54
2022/04/28 04:02:52;;;;;;;9.27;6.10;;;10.80;99.90;;;;;;4276669;27;20090;-55
2022/04/28 04:04:53;;;;;;;11.03;6.17;;;10.90;99.90;;;;;;4274051;27;20366;-59
2022/04/28 04:06:54;;;;;;;8.43;5.60;;;10.90;99.90;;;;;;4276987;27;20071;-57
2022/04/28 04:08:55;;;;;;;8.27;5.90;;;10.90;99.90;;;;;;4275606;27;20030;-54
2022/04/28 04:10:56;;;;;;;8.77;5.93;;;10.90;99.90;;;;;;4276835;27;20083;-55
2022/04/28 04:12:57;;;;;;;11.07;7.37;;;11.00;99.90;;;;;;4274461;27;20038;-51
2022/04/28 04:14:58;;;;;;;7.67;6.23;;;11.00;99.90;;;;;;4274859;27;20446;-55
2022/04/28 04:17:00;;;;;;;9.17;6.17;;;11.00;99.90;;;;;;4268429;27;20130;-57
2022/04/28 04:19:01;;;;;;;8.27;6.40;;;11.00;99.90;;;;;;4267480;27;20478;-56
2022/04/28 04:21:02;;;;;;;9.13;6.30;;;11.00;99.90;;;;;;4258173;27;20095;-54
2022/04/28 04:23:05;;;;;;;9.53;7.03;;;11.10;99.90;;;;;;4258508;27;20530;-56
2022/04/28 04:25:07;;;;;;;11.43;6.73;;;11.10;99.90;;;;;;4258072;27;20043;-51
2022/04/28 04:27:09;;;;;;;6.77;6.07;;;11.10;99.90;;;;;;4257954;27;20027;-48
2022/04/28 04:29:12;;;;;;;10.57;7.27;;;11.20;99.90;;;;;;4258529;27;20075;-65
2022/04/28 04:33:33;;;;;;;7.55;5.93;;;11.20;99.90;;;;;;4258356;27;20059;-54
2022/04/28 04:35:34;;;;;;;7.80;6.77;;;11.30;99.90;;;;;;4257178;27;20470;-55
2022/04/28 04:37:35;;;;;;;8.90;5.90;;;11.40;99.90;;;;;;4259080;27;20142;-54
2022/04/28 04:39:37;;;;;;;8.73;6.47;;;11.40;99.90;;;;;;4259100;27;20099;-56
2022/04/28 04:41:38;;;;;;;9.30;6.00;;;11.40;99.90;;;;;;4268914;27;20777;-57
2022/04/28 04:43:39;;;;;;;8.23;5.60;;;11.40;99.90;;;;;;4257920;27;20034;-50
2022/04/28 04:45:43;;;;;;;8.40;5.70;;;11.40;99.90;;;;;;4258609;27;20087;-61
2022/04/28 04:47:45;;;;;;;8.97;6.17;;;11.40;99.90;;;;;;4238751;27;20797;-67
2022/04/28 04:49:46;;;;;;;8.80;6.47;;;11.40;99.90;;;;;;4258604;27;20400;-67
2022/04/28 04:51:47;;;;;;;8.13;5.93;;;11.40;99.90;;;;;;4257417;27;20083;-57
2022/04/28 04:53:48;;;;;;;8.57;5.43;;;11.40;99.90;;;;;;4257699;27;20035;-55
2022/04/28 04:55:49;;;;;;;12.73;6.20;;;11.30;99.90;;;;;;4256989;27;20031;-64
2022/04/28 04:57:50;;;;;;;12.80;6.50;;;11.30;99.90;;;;;;4258168;27;20084;-56
2022/04/28 04:59:52;;;;;;;11.60;6.47;;;11.30;99.90;;;;;;4257663;27;20099;-54
2022/04/28 05:01:53;;;;;;;11.33;6.90;;;11.30;99.90;;;;;;4257601;27;20396;-53
2022/04/28 05:03:54;;;;;;;11.33;6.53;;;11.20;99.90;;;;;;4257804;27;20375;-54
2022/04/28 05:05:55;;;;;;;15.97;7.40;;;11.20;99.90;;;;;;4243816;27;20080;-58
2022/04/28 05:07:57;;;;;;;13.60;7.43;;;11.20;99.90;;;;;;4243495;27;20087;-50
2022/04/28 05:09:58;;;;;;;12.57;7.17;;;11.20;99.90;;;;;;4265050;27;20045;-55
2022/04/28 05:11:59;;;;;;;8.90;6.70;;;11.20;99.90;;;;;;4260693;27;20039;-54
2022/04/28 05:14:00;;;;;;;13.77;8.30;;;11.20;99.90;;;;;;4243929;27;20103;-57
2022/04/28 05:16:01;;;;;;;14.97;9.63;;;11.20;99.90;;;;;;4253240;27;20543;-63
2022/04/28 05:18:03;;;;;;;12.63;8.70;;;11.20;99.90;;;;;;4256624;27;20505;-57
2022/04/28 05:20:07;;;;;;;9.07;7.63;;;11.20;99.90;;;;;;4265851;27;20435;-54
2022/04/28 05:22:09;;;;;;;16.60;9.03;;;11.20;99.90;;;;;;4254907;27;20038;-54
2022/04/28 05:24:10;;;;;;;11.23;8.43;;;11.20;99.90;;;;;;4257285;27;20039;-56
2022/04/28 05:26:11;;;;;;;13.83;8.63;;;11.10;99.90;;;;;;4256211;27;20127;-53
2022/04/28 05:28:12;;;;;;;14.63;9.17;;;11.10;99.90;;;;;;4255958;27;20026;-68
2022/04/28 05:30:14;;;;;;;18.73;9.47;;;11.10;99.90;;;;;;4256453;27;20472;-60
2022/04/28 05:32:15;;;;;;;16.27;8.77;;;11.20;99.90;;;;;;4257026;27;20424;-64
2022/04/28 05:34:16;;;;;;;12.67;8.57;;;11.20;99.90;;;;;;4257043;27;20007;-54
2022/04/28 05:36:17;;;;;;;12.67;8.23;;;11.20;99.90;;;;;;4256752;27;20416;-57
2022/04/28 05:38:18;;;;;;;11.50;8.90;;;11.20;99.90;;;;;;4256901;27;20096;-50
2022/04/28 05:40:20;;;;;;;10.70;8.30;;;11.30;99.90;;;;;;4256771;27;20478;-57
2022/04/28 05:42:21;;;;;;;15.60;8.53;;;11.30;99.90;;;;;;4257662;27;20046;-57
2022/04/28 05:46:42;;;;;;;12.80;8.35;;;11.20;99.90;;;;;;4257119;27;20083;-57
2022/04/28 05:48:43;;;;;;;13.87;9.67;;;11.20;99.90;;;;;;4255936;27;20031;-55
2022/04/28 05:50:46;;;;;;;13.23;10.03;;;11.20;99.90;;;;;;4257862;27;20051;-60
2022/04/28 05:52:47;;;;;;;14.03;10.33;;;11.20;99.90;;;;;;4256489;27;20462;-53
2022/04/28 05:54:48;;;;;;;16.03;10.93;;;11.30;99.90;;;;;;4256584;27;20038;-53
2022/04/28 05:56:50;;;;;;;18.67;10.77;;;11.20;99.90;;;;;;4255240;27;20714;-58
2022/04/28 05:58:51;;;;;;;15.37;11.47;;;11.30;99.90;;;;;;4239332;27;20108;-60
2022/04/28 06:00:53;;;;;;;19.17;11.00;;;11.30;99.90;;;;;;4253254;27;20030;-59
2022/04/28 06:02:54;;;;;;;22.77;11.40;;;11.30;99.90;;;;;;4256549;27;20130;-53
2022/04/28 06:04:55;;;;;;;18.10;10.00;;;11.40;99.90;;;;;;4256525;27;20015;-60
2022/04/28 06:06:56;;;;;;;17.00;10.83;;;11.40;99.90;;;;;;4256848;27;20042;-61
2022/04/28 06:08:58;;;;;;;25.00;13.83;;;11.50;99.90;;;;;;4256237;27;20035;-57
2022/04/28 06:11:01;;;;;;;15.57;10.00;;;11.50;99.90;;;;;;4256288;27;20031;-55
2022/04/28 06:13:02;;;;;;;14.33;9.73;;;11.50;99.90;;;;;;4256908;27;20095;-53
2022/04/28 06:15:03;;;;;;;12.57;8.83;;;11.50;99.90;;;;;;4255902;27;20031;-52
2022/04/28 06:17:05;;;;;;;16.93;9.07;;;11.50;99.90;;;;;;4257526;27;20030;-59
2022/04/28 06:19:07;;;;;;;16.33;10.07;;;11.50;99.90;;;;;;4255997;27;20535;-60
2022/04/28 06:21:08;;;;;;;12.53;8.70;;;11.50;99.90;;;;;;4257881;27;20023;-54
2022/04/28 06:23:11;;;;;;;11.57;7.77;;;11.50;99.90;;;;;;4256206;27;20416;-65
2022/04/28 06:25:13;;;;;;;10.87;8.57;;;11.40;99.90;;;;;;4256801;27;20432;-64
2022/04/28 06:27:14;;;;;;;12.93;7.57;;;11.40;99.90;;;;;;4256147;27;20027;-61
2022/04/28 06:29:16;;;;;;;13.63;8.27;;;11.40;99.90;;;;;;4258007;27;20046;-62
2022/04/28 06:31:17;;;;;;;10.07;7.23;;;11.40;99.90;;;;;;4255222;27;20436;-59
2022/04/28 06:33:19;;;;;;;10.43;6.83;;;11.40;99.90;;;;;;4256802;27;20039;-63
2022/04/28 06:35:21;;;;;;;10.03;7.53;;;11.40;99.90;;;;;;4255906;27;20091;-54
2022/04/28 06:37:23;;;;;;;10.43;6.97;;;11.40;99.90;;;;;;4256305;27;20456;-56
2022/04/28 06:39:24;;;;;;;9.57;7.33;;;11.50;99.90;;;;;;4255727;27;20039;-52
2022/04/28 06:41:25;;;;;;;9.43;6.70;;;11.50;99.90;;;;;;4256176;27;20043;-62
2022/04/28 06:43:26;;;;;;;13.07;8.10;;;11.40;99.90;;;;;;4256866;27;20034;-56
2022/04/28 06:45:27;;;;;;;10.37;7.03;;;11.50;99.90;;;;;;4255730;27;20076;-55
2022/04/28 06:47:28;;;;;;;9.57;6.90;;;11.50;99.90;;;;;;4257279;27;20087;-56
2022/04/28 06:49:30;;;;;;;9.83;7.83;;;11.40;99.90;;;;;;4256041;27;20059;-53
2022/04/28 06:51:31;;;;;;;16.03;7.27;;;11.50;99.90;;;;;;4256601;27;20042;-53
2022/04/28 06:53:32;;;;;;;9.47;7.17;;;11.50;99.90;;;;;;4255823;27;20435;-54
2022/04/28 06:55:34;;;;;;;11.03;7.20;;;11.50;99.90;;;;;;4256175;27;20039;-56
2022/04/28 06:57:35;;;;;;;10.93;7.47;;;11.50;99.90;;;;;;4257525;27;20444;-55
2022/04/28 06:59:36;;;;;;;12.30;7.17;;;11.40;99.90;;;;;;4260573;27;20039;-55
2022/04/28 07:01:37;;;;;;;10.60;6.50;;;11.40;99.90;;;;;;4257960;27;20046;-54
2022/04/28 07:03:40;;;;;;;9.73;7.07;;;11.40;99.90;;;;;;4259255;27;20087;-55
2022/04/28 07:05:41;;;;;;;9.50;6.93;;;11.40;99.90;;;;;;4258621;27;20139;-64
2022/04/28 07:07:42;;;;;;;11.80;6.67;;;11.40;99.90;;;;;;4260080;27;20027;-65
2022/04/28 07:09:44;;;;;;;7.27;5.77;;;11.40;99.90;;;;;;4259249;27;20522;-55
2022/04/28 07:11:45;;;;;;;8.80;5.27;;;11.40;99.90;;;;;;4259394;27;20080;-54
2022/04/28 07:13:46;;;;;;;4.77;4.27;;;11.40;99.90;;;;;;4259508;27;20034;-62
2022/04/28 07:15:48;;;;;;;7.50;4.73;;;11.40;99.90;;;;;;4258620;27;20067;-68
2022/04/28 07:17:49;;;;;;;9.30;4.40;;;11.40;99.90;;;;;;4259270;27;20043;-52
2022/04/28 07:19:50;;;;;;;10.97;5.27;;;11.40;99.90;;;;;;4258254;27;20070;-55
2022/04/28 07:21:52;;;;;;;8.97;5.43;;;11.40;99.90;;;;;;4259835;27;20039;-52
2022/04/28 07:23:53;;;;;;;6.43;4.97;;;11.40;99.90;;;;;;4258365;27;20083;-57
2022/04/28 07:25:54;;;;;;;7.23;5.27;;;11.50;99.90;;;;;;4259965;27;20026;-53
2022/04/28 07:27:56;;;;;;;6.53;5.33;;;11.50;99.90;;;;;;4258640;27;20102;-55
2022/04/28 07:29:57;;;;;;;8.93;5.70;;;11.60;99.90;;;;;;4260108;27;20031;-67
2022/04/28 07:31:58;;;;;;;9.77;6.13;;;11.70;99.90;;;;;;4258314;27;20070;-55
2022/04/28 07:33:59;;;;;;;6.63;4.87;;;11.80;99.90;;;;;;4240950;27;20039;-58
2022/04/28 07:36:01;;;;;;;5.27;3.80;;;11.90;99.90;;;;;;4258782;27;20030;-56
2022/04/28 07:38:02;;;;;;;3.47;3.00;;;11.90;99.90;;;;;;4259307;27;20099;-64
2022/04/28 07:40:04;;;;;;;4.23;3.87;;;11.90;99.90;;;;;;4258361;27;20031;-55
2022/04/28 07:42:05;;;;;;;6.37;3.07;;;11.90;99.90;;;;;;4259042;27;20451;-57
2022/04/28 07:44:07;;;;;;;4.50;2.97;;;11.90;99.90;;;;;;4258571;27;20042;-55
2022/04/28 07:46:10;;;;;;;3.80;2.80;;;11.90;99.90;;;;;;4258041;27;20447;-56
2022/04/28 07:48:11;;;;;;;3.10;2.50;;;12.00;99.90;;;;;;4258520;27;20042;-56
2022/04/28 07:50:12;;;;;;;4.93;3.30;;;12.10;99.90;;;;;;4257612;27;20378;-56
2022/04/28 07:52:13;;;;;;;6.03;2.90;;;12.10;99.90;;;;;;4259267;27;20031;-60
2022/04/28 07:54:17;;;;;;;3.43;2.30;;;12.10;99.90;;;;;;4258661;27;20064;-66
2022/04/28 07:56:20;;;;;;;1.27;1.07;;;12.20;99.90;;;;;;4259459;27;20042;-53
2022/04/28 07:58:22;;;;;;;1.17;0.90;;;12.10;99.90;;;;;;4257991;27;20486;-53
2022/04/28 08:00:24;;;;;;;1.50;1.40;;;12.00;99.90;;;;;;4259394;27;20431;-55
2022/04/28 08:02:26;;;;;;;4.63;0.93;;;12.00;99.90;;;;;;4257925;27;20139;-59
2022/04/28 08:04:27;;;;;;;2.47;0.60;;;11.90;99.90;;;;;;4259442;27;20079;-59
2022/04/28 08:06:29;;;;;;;6.30;3.53;;;11.80;99.90;;;;;;4257934;27;20034;-55
2022/04/28 08:08:30;;;;;;;16.13;7.37;;;11.70;99.90;;;;;;4258848;27;20022;-55
2022/04/28 08:10:31;;;;;;;2.57;1.93;;;11.70;99.90;;;;;;4257560;27;20038;-65
2022/04/28 08:12:33;;;;;;;2.80;0.60;;;11.70;99.90;;;;;;4258231;27;20042;-57
2022/04/28 08:14:34;;;;;;;1.37;0.90;;;11.60;99.90;;;;;;4258059;27;20083;-56
2022/04/28 08:16:35;;;;;;;2.60;1.00;;;11.70;99.90;;;;;;4258290;27;20031;-56
2022/04/28 08:18:38;;;;;;;3.40;1.50;;;11.70;99.90;;;;;;4257996;27;20418;-60
2022/04/28 08:20:40;;;;;;;5.77;1.77;;;11.70;99.90;;;;;;4258044;27;20079;-52
2022/04/28 08:22:41;;;;;;;2.77;1.60;;;11.70;99.90;;;;;;4258707;27;20071;-57
2022/04/28 08:24:44;;;;;;;2.17;1.67;;;11.70;99.90;;;;;;4257445;27;20783;-68
2022/04/28 08:26:45;;;;;;;2.13;1.57;;;11.70;99.90;;;;;;4258878;27;20036;-57
2022/04/28 08:28:46;;;;;;;1.63;1.20;;;11.70;99.90;;;;;;4257495;27;20038;-56
2022/04/28 08:30:48;;;;;;;8.30;2.60;;;11.80;99.90;;;;;;4258934;27;20031;-62
2022/04/28 08:32:49;;;;;;;3.00;1.87;;;11.80;99.90;;;;;;4255975;27;20375;-56
2022/04/28 08:34:50;;;;;;;1.27;0.83;;;11.80;99.90;;;;;;4257174;27;20118;-55
2022/04/28 08:36:51;;;;;;;2.23;1.20;;;11.80;99.90;;;;;;4255950;27;20060;-62
2022/04/28 08:38:53;;;;;;;1.27;1.00;;;11.80;99.90;;;;;;4258539;27;20039;-55
2022/04/28 08:41:00;;;;;;;1.70;1.40;;;11.90;99.90;;;;;;4258116;27;20042;-54
2022/04/28 08:43:05;;;;;;;3.40;1.57;;;11.90;99.90;;;;;;4260990;27;20034;-56
2022/04/28 08:45:06;;;;;;;6.77;1.73;;;11.90;99.90;;;;;;4260883;27;20428;-56
2022/04/28 08:47:08;;;;;;;0.93;0.83;;;11.90;99.90;;;;;;4258643;27;20039;-54
2022/04/28 08:49:12;;;;;;;4.00;0.83;;;11.90;99.90;;;;;;4257821;27;20035;-50
2022/04/28 08:51:13;;;;;;;2.70;1.40;;;11.90;99.90;;;;;;4257257;27;20042;-55
2022/04/28 08:53:14;;;;;;;1.77;1.40;;;12.00;99.90;;;;;;4257617;27;20039;-67
2022/04/28 08:55:16;;;;;;;1.33;1.00;;;12.10;99.90;;;;;;4256605;27;20091;-57
2022/04/28 08:57:17;;;;;;;1.70;1.30;;;12.10;99.90;;;;;;4258102;27;20507;-53
2022/04/28 08:59:20;;;;;;;3.30;1.50;;;12.10;99.90;;;;;;4257515;27;20392;-65
2022/04/28 09:01:27;;;;;;;1.83;0.63;;;12.20;99.90;;;;;;4258134;27;20087;-50
2022/04/28 09:03:28;;;;;;;1.27;0.90;;;12.10;99.90;;;;;;4256689;27;20075;-53
2022/04/28 09:05:31;;;;;;;1.00;0.60;;;12.00;99.90;;;;;;4258516;27;20409;-68
2022/04/28 09:07:40;;;;;;;3.30;1.50;;;11.90;99.90;;;;;;4257217;27;20019;-68
2022/04/28 09:09:42;;;;;;;1.17;0.70;;;11.80;99.90;;;;;;4257628;27;20487;-52
2022/04/28 09:11:44;;;;;;;1.37;0.77;;;11.70;99.90;;;;;;4237679;27;20101;-57
2022/04/28 09:14:09;;;;;;;2.40;0.90;;;11.60;99.90;;;;;;4258158;27;20030;-54
2022/04/28 09:16:10;;;;;;;1.13;0.60;;;11.50;99.90;;;;;;4256373;27;20035;-58
2022/04/28 09:18:11;;;;;;;1.70;0.57;;;11.40;99.90;;;;;;4257193;27;20042;-58
2022/04/28 09:20:16;;;;;;;0.93;0.30;;;11.40;99.90;;;;;;4255550;27;20064;-59
2022/04/28 09:22:23;;;;;;;2.30;0.73;;;11.40;99.90;;;;;;4257896;27;20076;-57
2022/04/28 09:24:25;;;;;;;1.00;0.60;;;11.40;99.90;;;;;;4256399;27;20202;-50
2022/04/28 09:26:27;;;;;;;1.97;0.97;;;11.40;99.90;;;;;;4257877;27;20023;-68
2022/04/28 09:28:30;;;;;;;3.73;0.87;;;11.50;99.90;;;;;;4256287;27;20724;-55
2022/04/28 09:30:42;;;;;;;3.57;1.40;;;11.40;99.90;;;;;;4258061;27;20384;-53
2022/04/28 09:32:51;;;;;;;1.17;0.90;;;11.50;99.90;;;;;;4256534;27;20530;-54
2022/04/28 09:34:53;;;;;;;3.10;0.90;;;11.50;99.90;;;;;;4257132;27;20031;-51
2022/04/28 09:36:56;;;;;;;2.87;1.20;;;11.60;99.90;;;;;;4256179;27;20582;-56
2022/04/28 09:38:57;;;;;;;6.77;1.37;;;11.70;99.90;;;;;;4256494;27;20107;-62
2022/04/28 09:43:19;;;;;;;2.50;1.38;;;11.90;99.90;;;;;;4257787;27;20030;-68
2022/04/28 09:45:23;;;;;;;2.03;0.90;;;12.10;99.90;;;;;;4256590;27;20554;-60
2022/04/28 09:47:25;;;;;;;4.03;1.50;;;12.20;99.90;;;;;;4256866;27;20030;-55
2022/04/28 09:49:30;;;;;;;1.13;0.90;;;12.20;99.90;;;;;;4256894;27;21625;-55
2022/04/28 09:51:32;;;;;;;2.83;1.10;;;12.30;99.90;;;;;;4255834;27;20809;-61
2022/04/28 09:53:37;;;;;;;2.27;1.50;;;12.40;99.90;;;;;;4256583;27;20420;-58
2022/04/28 09:55:40;;;;;;;1.50;1.40;;;12.50;99.90;;;;;;4255988;27;20105;-68
2022/04/28 09:57:41;;;;;;;1.50;1.30;;;12.60;99.90;;;;;;4257658;27;20127;-57
2022/04/28 09:59:43;;;;;;;2.30;1.10;;;12.60;99.90;;;;;;4256275;27;20083;-61
2022/04/28 10:01:44;;;;;;;3.00;1.23;;;12.70;99.90;;;;;;4257225;27;20444;-62
2022/04/28 10:03:45;;;;;;;1.50;1.07;;;12.80;99.90;;;;;;4255758;27;20046;-59
2022/04/28 10:05:48;;;;;;;4.07;0.97;;;12.90;99.90;;;;;;4256732;27;20050;-61
2022/04/28 10:07:51;;;;;;;3.00;0.93;;;13.00;99.90;;;;;;4255747;27;20372;-56
2022/04/28 10:09:53;;;;;;;1.90;1.20;;;13.10;99.90;;;;;;4257517;27;20462;-53
2022/04/28 10:11:54;;;;;;;2.20;1.30;;;13.20;99.90;;;;;;4255922;27;20039;-63
2022/04/28 10:13:57;;;;;;;1.80;1.70;;;13.30;99.90;;;;;;4257017;27;20034;-56
2022/04/28 10:16:02;;;;;;;1.20;0.90;;;13.40;99.90;;;;;;4256131;27;20150;-63
2022/04/28 10:18:15;;;;;;;1.43;0.90;;;13.50;99.90;;;;;;4256548;27;20090;-59
2022/04/28 10:20:34;;;;;;;2.97;1.20;;;13.60;99.90;;;;;;4256448;27;20114;-60
2022/04/28 10:22:39;;;;;;;3.17;1.73;;;13.70;99.90;;;;;;4256898;27;20083;-58
2022/04/28 10:34:13;;;;;;;;;;;14.40;99.90;;;;;;4259709;27;20102;-52
2022/04/28 10:36:21;;;;;;;1.30;0.70;;;14.40;99.90;;;;;;4261120;27;19915;-59
2022/04/28 10:38:34;;;;;;;2.97;1.00;;;14.50;99.90;;;;;;4259466;27;20114;-60
2022/04/28 10:41:04;;;;;;;2.03;0.60;;;14.50;99.90;;;;;;4260970;27;20061;-59
2022/04/28 10:43:23;;;;;;;1.87;0.70;;;14.50;99.90;;;;;;4258801;27;20114;-55
2022/04/28 10:45:28;;;;;;;0.97;0.70;;;14.50;99.90;;;;;;4260995;27;20394;-55
2022/04/28 10:47:37;;;;;;;0.83;0.70;;;14.50;99.90;;;;;;4258089;27;20107;-51
2022/04/28 10:49:43;;;;;;;0.17;0.10;;;14.40;99.90;;;;;;4259826;27;20043;-65
2022/04/28 10:51:44;;;;;;;0.20;0.20;;;14.40;99.90;;;;;;4258654;27;20023;-54
2022/04/28 10:54:06;;;;;;;0.50;0.30;;;14.40;99.90;;;;;;4260280;27;20030;-54
2022/04/28 10:56:09;;;;;;;1.40;0.40;;;14.40;99.90;;;;;;4258148;27;20095;-53
2022/04/28 10:58:20;;;;;;;0.70;0.30;;;14.40;99.90;;;;;;4260049;27;20494;-59
2022/04/28 11:00:34;;;;;;;0.30;0.30;;;14.40;99.90;;;;;;4258732;27;20035;-54
2022/04/28 11:02:37;;;;;;;0.90;0.77;;;14.50;99.90;;;;;;4259769;27;20038;-52
2022/04/28 11:04:40;;;;;;;2.83;0.50;;;14.50;99.90;;;;;;4258613;27;20054;-62
2022/04/28 11:06:50;;;;;;;0.40;0.20;;;14.50;99.90;;;;;;4260110;27;20039;-62